Time,TemperatureF,DewpointF,PressureIn,WindDirection,WindDirectionDegrees,WindSpeedMPH,WindSpeedGustMPH,Humidity,HourlyPrecipIn,Conditions,Clouds,dailyrainin,SoftwareType,DateUTC
2013-02-20 00:00:00,49.3,45.0,29.98,NW,307,3.0,11.0,85,0.00,,,0.08,Wunderground v.1.15,2013-02-20 05:00:00,
2013-02-20 00:05:00,49.0,44.7,29.98,WNW,298,3.0,11.0,85,0.00,,,0.08,Wunderground v.1.15,2013-02-20 05:05:00,
2013-02-20 00:10:00,48.9,44.9,29.98,NW,305,2.0,11.0,86,0.00,,,0.08,Wunderground v.1.15,2013-02-20 05:10:00,
2013-02-20 00:15:00,48.6,44.6,29.98,WNW,284,2.0,11.0,86,0.00,,,0.08,Wunderground v.1.15,2013-02-20 05:15:00,
2013-02-20 00:20:00,48.5,44.5,29.98,WNW,288,2.0,11.0,86,0.00,,,0.08,Wunderground v.1.15,2013-02-20 05:20:00,
2013-02-20 00:25:00,48.3,44.6,29.98,NW,304,2.0,11.0,87,0.00,,,0.08,Wunderground v.1.15,2013-02-20 05:25:00,
2013-02-20 00:30:00,48.2,44.5,29.98,WNW,291,2.0,11.0,87,0.00,,,0.08,Wunderground v.1.15,2013-02-20 05:30:00,
2013-02-20 00:35:00,48.0,44.3,29.98,West,262,2.0,11.0,87,0.00,,,0.08,Wunderground v.1.15,2013-02-20 05:35:00,
2013-02-20 00:40:00,47.9,44.2,29.98,WNW,291,3.0,11.0,87,0.00,,,0.08,Wunderground v.1.15,2013-02-20 05:40:00,
2013-02-20 00:45:00,47.7,44.3,29.98,West,281,3.0,11.0,88,0.00,,,0.08,Wunderground v.1.15,2013-02-20 05:45:00,
2013-02-20 00:50:00,47.6,44.2,29.98,WNW,297,3.0,11.0,88,0.00,,,0.08,Wunderground v.1.15,2013-02-20 05:50:00,
2013-02-20 00:55:00,47.5,44.1,29.98,WNW,293,2.0,11.0,88,0.00,,,0.08,Wunderground v.1.15,2013-02-20 05:55:00,
2013-02-20 01:00:00,47.2,43.8,29.98,WNW,297,2.0,2.0,88,0.00,,,0.08,Wunderground v.1.15,2013-02-20 06:00:00,
2013-02-20 01:05:00,46.9,43.8,29.98,West,277,2.0,4.0,89,0.00,,,0.00,Wunderground v.1.15,2013-02-20 06:05:00,
2013-02-20 01:10:00,46.8,43.7,29.99,WNW,287,2.0,4.0,89,0.00,,,0.00,Wunderground v.1.15,2013-02-20 06:10:00,
2013-02-20 01:15:00,46.7,43.6,29.99,WNW,284,2.0,4.0,89,0.00,,,0.00,Wunderground v.1.15,2013-02-20 06:15:00,
2013-02-20 01:20:00,46.6,43.5,29.99,West,274,2.0,4.0,89,0.00,,,0.00,Wunderground v.1.15,2013-02-20 06:20:00,
2013-02-20 01:25:00,46.7,43.9,29.99,WNW,300,3.0,4.0,90,0.00,,,0.00,Wunderground v.1.15,2013-02-20 06:25:00,
2013-02-20 01:30:00,46.6,43.5,29.99,WNW,289,3.0,4.0,89,0.00,,,0.00,Wunderground v.1.15,2013-02-20 06:30:00,
2013-02-20 01:40:00,46.2,43.1,29.99,NW,304,4.0,5.0,89,0.00,,,0.00,Wunderground v.1.15,2013-02-20 06:40:00,
2013-02-20 01:45:00,46.1,43.3,29.99,West,278,4.0,5.0,90,0.00,,,0.00,Wunderground v.1.15,2013-02-20 06:45:00,
2013-02-20 01:50:00,46.1,43.3,29.99,WNW,293,4.0,4.0,90,0.00,,,0.00,Wunderground v.1.15,2013-02-20 06:50:00,
2013-02-20 01:55:00,46.0,43.2,29.99,WNW,297,4.0,4.0,90,0.00,,,0.00,Wunderground v.1.15,2013-02-20 06:55:00,
2013-02-20 02:00:00,45.9,43.1,29.99,WNW,297,5.0,5.0,90,0.00,,,0.00,Wunderground v.1.15,2013-02-20 07:00:00,
2013-02-20 02:10:00,45.8,43.0,29.99,WNW,291,5.0,5.0,90,0.00,,,0.00,Wunderground v.1.15,2013-02-20 07:10:00,
2013-02-20 02:15:00,45.6,42.8,29.99,NW,313,4.0,5.0,90,0.00,,,0.00,Wunderground v.1.15,2013-02-20 07:15:00,
2013-02-20 02:20:00,45.5,42.7,30.00,WNW,300,4.0,5.0,90,0.00,,,0.00,Wunderground v.1.15,2013-02-20 07:20:00,
2013-02-20 02:25:00,45.5,42.7,30.00,WNW,299,5.0,5.0,90,0.00,,,0.00,Wunderground v.1.15,2013-02-20 07:25:00,
2013-02-20 02:30:00,45.3,42.5,30.00,NW,311,4.0,5.0,90,0.00,,,0.00,Wunderground v.1.15,2013-02-20 07:30:00,
2013-02-20 02:35:00,45.1,42.3,30.00,NW,326,3.0,5.0,90,0.00,,,0.00,Wunderground v.1.15,2013-02-20 07:35:00,
2013-02-20 02:40:00,45.1,42.3,30.00,NNW,335,3.0,5.0,90,0.00,,,0.00,Wunderground v.1.15,2013-02-20 07:40:00,
2013-02-20 02:45:00,45.0,42.2,30.00,NNW,346,3.0,5.0,90,0.00,,,0.00,Wunderground v.1.15,2013-02-20 07:45:00,
2013-02-20 02:50:00,44.9,42.1,30.00,North,351,3.0,3.0,90,0.00,,,0.00,Wunderground v.1.15,2013-02-20 07:50:00,
2013-02-20 02:55:00,45.1,42.3,30.00,NNW,339,4.0,4.0,90,0.00,,,0.00,Wunderground v.1.15,2013-02-20 07:55:00,
2013-02-20 03:00:00,45.1,42.3,30.00,WNW,297,5.0,7.0,90,0.00,,,0.00,Wunderground v.1.15,2013-02-20 08:00:00,
2013-02-20 03:10:00,44.8,42.0,30.00,WNW,300,4.0,7.0,90,0.00,,,0.00,Wunderground v.1.15,2013-02-20 08:10:00,
2013-02-20 03:15:00,44.6,41.8,30.00,NW,311,3.0,7.0,90,0.00,,,0.00,Wunderground v.1.15,2013-02-20 08:15:00,
2013-02-20 03:20:00,44.4,41.7,30.00,NW,311,3.0,3.0,90,0.00,,,0.00,Wunderground v.1.15,2013-02-20 08:20:00,
2013-02-20 03:25:00,44.3,41.6,30.00,NW,313,3.0,7.0,90,0.00,,,0.00,Wunderground v.1.15,2013-02-20 08:25:00,
2013-02-20 03:30:00,44.1,41.4,30.00,NNE,13,4.0,4.0,90,0.00,,,0.00,Wunderground v.1.15,2013-02-20 08:30:00,
2013-02-20 03:35:00,44.0,41.3,30.00,NE,50,3.0,8.0,90,0.00,,,0.00,Wunderground v.1.15,2013-02-20 08:35:00,
2013-02-20 03:40:00,43.8,41.1,30.00,NW,325,3.0,7.0,90,0.00,,,0.00,Wunderground v.1.15,2013-02-20 08:40:00,
2013-02-20 03:45:00,43.6,40.9,30.00,NNW,329,3.0,7.0,90,0.00,,,0.00,Wunderground v.1.15,2013-02-20 08:45:00,
2013-02-20 03:50:00,43.4,40.7,30.00,NW,317,3.0,3.0,90,0.00,,,0.00,Wunderground v.1.15,2013-02-20 08:50:00,
2013-02-20 03:55:00,43.2,40.5,30.01,NNW,330,3.0,7.0,90,0.00,,,0.00,Wunderground v.1.15,2013-02-20 08:55:00,
2013-02-20 04:00:00,43.1,40.4,30.01,NNW,334,3.0,8.0,90,0.00,,,0.00,Wunderground v.1.15,2013-02-20 09:00:00,
2013-02-20 04:05:00,42.9,40.2,30.01,WNW,291,3.0,8.0,90,0.00,,,0.00,Wunderground v.1.15,2013-02-20 09:05:00,
2013-02-20 04:10:00,42.7,40.0,30.01,NNW,346,3.0,8.0,90,0.00,,,0.00,Wunderground v.1.15,2013-02-20 09:10:00,
2013-02-20 04:15:00,42.5,39.8,30.01,WNW,288,2.0,8.0,90,0.00,,,0.00,Wunderground v.1.15,2013-02-20 09:15:00,
2013-02-20 04:20:00,42.4,39.7,30.02,NNW,346,3.0,8.0,90,0.00,,,0.00,Wunderground v.1.15,2013-02-20 09:20:00,
2013-02-20 04:25:00,42.3,39.6,30.02,NW,316,3.0,8.0,90,0.00,,,0.00,Wunderground v.1.15,2013-02-20 09:25:00,
2013-02-20 04:30:00,42.2,39.5,30.02,West,281,3.0,8.0,90,0.00,,,0.00,Wunderground v.1.15,2013-02-20 09:30:00,
2013-02-20 04:35:00,42.1,39.1,30.03,NW,325,4.0,8.0,89,0.00,,,0.00,Wunderground v.1.15,2013-02-20 09:35:00,
2013-02-20 04:40:00,41.9,38.9,30.03,WNW,300,4.0,8.0,89,0.00,,,0.00,Wunderground v.1.15,2013-02-20 09:40:00,
2013-02-20 04:45:00,41.8,38.8,30.03,NW,317,4.0,8.0,89,0.00,,,0.00,Wunderground v.1.15,2013-02-20 09:45:00,
2013-02-20 04:55:00,41.4,38.4,30.03,NW,319,3.0,8.0,89,0.00,,,0.00,Wunderground v.1.15,2013-02-20 09:55:00,
2013-02-20 05:00:00,41.2,38.2,30.03,NW,307,3.0,8.0,89,0.00,,,0.00,Wunderground v.1.15,2013-02-20 10:00:00,
2013-02-20 05:10:00,40.8,37.8,30.05,NNW,333,3.0,8.0,89,0.00,,,0.00,Wunderground v.1.15,2013-02-20 10:10:00,
2013-02-20 05:15:00,40.7,37.7,30.05,NNE,15,3.0,8.0,89,0.00,,,0.00,Wunderground v.1.15,2013-02-20 10:15:00,
2013-02-20 05:20:00,40.6,37.6,30.05,NW,317,2.0,8.0,89,0.00,,,0.00,Wunderground v.1.15,2013-02-20 10:20:00,
2013-02-20 05:25:00,40.4,37.4,30.05,NW,318,2.0,8.0,89,0.00,,,0.00,Wunderground v.1.15,2013-02-20 10:25:00,
2013-02-20 05:30:00,40.2,37.5,30.05,NNW,339,2.0,8.0,90,0.00,,,0.00,Wunderground v.1.15,2013-02-20 10:30:00,
2013-02-20 05:35:00,40.1,37.4,30.06,North,354,2.0,8.0,90,0.00,,,0.00,Wunderground v.1.15,2013-02-20 10:35:00,
2013-02-20 05:40:00,40.0,37.3,30.06,WNW,303,2.0,2.0,90,0.00,,,0.00,Wunderground v.1.15,2013-02-20 10:40:00,
2013-02-20 05:45:00,39.8,37.1,30.06,NW,321,2.0,8.0,90,0.00,,,0.00,Wunderground v.1.15,2013-02-20 10:45:00,
2013-02-20 05:50:00,39.7,37.0,30.06,NW,321,2.0,2.0,90,0.00,,,0.00,Wunderground v.1.15,2013-02-20 10:50:00,
2013-02-20 05:55:00,39.5,36.8,30.06,NW,320,2.0,4.0,90,0.00,,,0.00,Wunderground v.1.15,2013-02-20 10:55:00,
2013-02-20 06:00:00,39.3,36.6,30.06,NW,312,2.0,2.0,90,0.00,,,0.00,Wunderground v.1.15,2013-02-20 11:00:00,
2013-02-20 06:05:00,39.2,36.5,30.07,NW,307,2.0,6.0,90,0.00,,,0.00,Wunderground v.1.15,2013-02-20 11:05:00,
2013-02-20 06:10:00,39.2,36.2,30.07,NW,314,2.0,6.0,89,0.00,,,0.00,Wunderground v.1.15,2013-02-20 11:10:00,
2013-02-20 06:15:00,39.2,36.2,30.08,NW,305,3.0,6.0,89,0.00,,,0.00,Wunderground v.1.15,2013-02-20 11:15:00,
2013-02-20 06:20:00,39.2,36.2,30.08,North,356,3.0,3.0,89,0.00,,,0.00,Wunderground v.1.15,2013-02-20 11:20:00,
2013-02-20 06:25:00,39.2,36.2,30.08,WNW,288,4.0,4.0,89,0.00,,,0.00,Wunderground v.1.15,2013-02-20 11:25:00,
2013-02-20 06:30:00,39.1,36.1,30.08,WNW,302,4.0,4.0,89,0.00,,,0.00,Wunderground v.1.15,2013-02-20 11:30:00,
2013-02-20 06:35:00,39.1,36.4,30.08,WNW,291,3.0,6.0,90,0.00,,,0.00,Wunderground v.1.15,2013-02-20 11:35:00,
2013-02-20 06:40:00,39.1,36.4,30.08,NW,310,4.0,6.0,90,0.00,,,0.00,Wunderground v.1.15,2013-02-20 11:40:00,
2013-02-20 06:45:00,38.9,35.9,30.08,WNW,297,3.0,6.0,89,0.00,,,0.00,Wunderground v.1.15,2013-02-20 11:45:00,
2013-02-20 06:50:00,38.7,35.7,30.08,WNW,300,3.0,6.0,89,0.00,,,0.00,Wunderground v.1.15,2013-02-20 11:50:00,
2013-02-20 06:55:00,38.7,35.7,30.09,WNW,296,3.0,6.0,89,0.00,,,0.00,Wunderground v.1.15,2013-02-20 11:55:00,
2013-02-20 07:00:00,38.7,35.7,30.09,WNW,297,4.0,4.0,89,0.00,,,0.00,Wunderground v.1.15,2013-02-20 12:00:00,
2013-02-20 07:05:00,38.7,35.7,30.09,WNW,299,4.0,6.0,89,0.00,,,0.00,Wunderground v.1.15,2013-02-20 12:05:00,
2013-02-20 07:10:00,38.7,35.5,30.09,WNW,303,3.0,6.0,88,0.00,,,0.00,Wunderground v.1.15,2013-02-20 12:10:00,
2013-02-20 07:15:00,38.6,35.4,30.09,WNW,297,2.0,6.0,88,0.00,,,0.00,Wunderground v.1.15,2013-02-20 12:15:00,
2013-02-20 07:20:00,38.6,35.4,30.10,NNW,333,2.0,2.0,88,0.00,,,0.00,Wunderground v.1.15,2013-02-20 12:20:00,
2013-02-20 07:25:00,38.5,35.3,30.10,NNW,335,2.0,6.0,88,0.00,,,0.00,Wunderground v.1.15,2013-02-20 12:25:00,
2013-02-20 07:35:00,38.6,35.4,30.11,NW,304,2.0,6.0,88,0.00,,,0.00,Wunderground v.1.15,2013-02-20 12:35:00,
2013-02-20 07:40:00,38.7,35.5,30.11,NNW,338,1.0,6.0,88,0.00,,,0.00,Wunderground v.1.15,2013-02-20 12:40:00,
2013-02-20 07:45:00,38.9,35.6,30.12,NW,325,2.0,6.0,88,0.00,,,0.00,Wunderground v.1.15,2013-02-20 12:45:00,
2013-02-20 07:50:00,39.1,35.6,30.12,NW,312,2.0,6.0,87,0.00,,,0.00,Wunderground v.1.15,2013-02-20 12:50:00,
2013-02-20 07:55:00,39.3,35.5,30.12,NW,304,2.0,6.0,86,0.00,,,0.00,Wunderground v.1.15,2013-02-20 12:55:00,
2013-02-20 08:00:00,39.5,35.4,30.12,NW,323,3.0,5.0,85,0.00,,,0.00,Wunderground v.1.15,2013-02-20 13:00:00,
2013-02-20 08:05:00,39.7,35.3,30.12,NW,325,3.0,5.0,84,0.00,,,0.00,Wunderground v.1.15,2013-02-20 13:05:00,
2013-02-20 08:10:00,40.0,35.6,30.12,NW,323,3.0,3.0,84,0.00,,,0.00,Wunderground v.1.15,2013-02-20 13:10:00,
2013-02-20 08:15:00,40.3,35.2,30.12,NNW,345,4.0,6.0,82,0.00,,,0.00,Wunderground v.1.15,2013-02-20 13:15:00,
2013-02-20 08:20:00,40.6,34.9,30.12,NW,326,5.0,5.0,80,0.00,,,0.00,Wunderground v.1.15,2013-02-20 13:20:00,
2013-02-20 08:25:00,41.0,34.3,30.13,NNW,333,5.0,5.0,77,0.00,,,0.00,Wunderground v.1.15,2013-02-20 13:25:00,
2013-02-20 08:30:00,41.3,34.3,30.13,NW,318,5.0,7.0,76,0.00,,,0.00,Wunderground v.1.15,2013-02-20 13:30:00,
2013-02-20 08:35:00,41.5,34.2,30.13,NW,315,5.0,7.0,75,0.00,,,0.00,Wunderground v.1.15,2013-02-20 13:35:00,
2013-02-20 08:40:00,41.6,33.6,30.13,NNW,336,5.0,5.0,73,0.00,,,0.00,Wunderground v.1.15,2013-02-20 13:40:00,
2013-02-20 08:45:00,41.7,33.0,30.13,NW,312,5.0,5.0,71,0.00,,,0.00,Wunderground v.1.15,2013-02-20 13:45:00,
2013-02-20 08:50:00,41.9,33.2,30.13,NW,314,5.0,5.0,71,0.00,,,0.00,Wunderground v.1.15,2013-02-20 13:50:00,
2013-02-20 08:55:00,42.2,33.1,30.13,NNW,340,5.0,5.0,70,0.00,,,0.00,Wunderground v.1.15,2013-02-20 13:55:00,
2013-02-20 09:00:00,42.5,32.7,30.12,NW,319,5.0,5.0,68,0.00,,,0.00,Wunderground v.1.15,2013-02-20 14:00:00,
2013-02-20 09:05:00,42.8,31.8,30.11,North,7,6.0,8.0,65,0.00,,,0.00,Wunderground v.1.15,2013-02-20 14:05:00,
2013-02-20 09:10:00,43.1,31.7,30.11,NNW,339,6.0,6.0,64,0.00,,,0.00,Wunderground v.1.15,2013-02-20 14:10:00,
2013-02-20 09:15:00,43.3,29.9,30.11,NW,321,6.0,9.0,59,0.00,,,0.00,Wunderground v.1.15,2013-02-20 14:15:00,
2013-02-20 09:20:00,43.6,30.2,30.11,North,359,7.0,9.0,59,0.00,,,0.00,Wunderground v.1.15,2013-02-20 14:20:00,
2013-02-20 09:25:00,44.0,30.6,30.11,NNE,18,7.0,9.0,59,0.00,,,0.00,Wunderground v.1.15,2013-02-20 14:25:00,
2013-02-20 09:30:00,44.3,30.4,30.11,NNW,327,6.0,9.0,58,0.00,,,0.00,Wunderground v.1.15,2013-02-20 14:30:00,
2013-02-20 09:35:00,44.6,29.0,30.11,NW,309,5.0,9.0,54,0.00,,,0.00,Wunderground v.1.15,2013-02-20 14:35:00,
2013-02-20 09:40:00,44.8,29.2,30.11,North,11,5.0,5.0,54,0.00,,,0.00,Wunderground v.1.15,2013-02-20 14:40:00,
2013-02-20 09:45:00,45.3,29.6,30.11,NNW,335,5.0,6.0,54,0.00,,,0.00,Wunderground v.1.15,2013-02-20 14:45:00,
2013-02-20 09:50:00,45.6,28.0,30.11,North,356,5.0,5.0,50,0.00,,,0.00,Wunderground v.1.15,2013-02-20 14:50:00,
2013-02-20 09:55:00,46.0,26.4,30.11,NNW,332,6.0,6.0,46,0.00,,,0.00,Wunderground v.1.15,2013-02-20 14:55:00,
2013-02-20 10:00:00,46.5,27.3,30.11,North,350,6.0,13.0,47,0.00,,,0.00,Wunderground v.1.15,2013-02-20 15:00:00,
2013-02-20 10:05:00,46.9,26.1,30.12,NW,321,6.0,13.0,44,0.00,,,0.00,Wunderground v.1.15,2013-02-20 15:05:00,
2013-02-20 10:10:00,47.3,26.5,30.12,NNE,28,7.0,13.0,44,0.00,,,0.00,Wunderground v.1.15,2013-02-20 15:10:00,
2013-02-20 10:20:00,47.6,25.0,30.13,North,6,8.0,8.0,41,0.00,,,0.00,Wunderground v.1.15,2013-02-20 15:20:00,
2013-02-20 10:25:00,48.0,24.8,30.13,NW,309,7.0,13.0,40,0.00,,,0.00,Wunderground v.1.15,2013-02-20 15:25:00,
2013-02-20 10:30:00,48.1,26.6,30.13,NW,324,6.0,6.0,43,0.00,,,0.00,Wunderground v.1.15,2013-02-20 15:30:00,
2013-02-20 10:35:00,48.4,24.6,30.12,NW,322,6.0,10.0,39,0.00,,,0.00,Wunderground v.1.15,2013-02-20 15:35:00,
2013-02-20 10:40:00,48.5,24.6,30.12,NW,321,6.0,6.0,39,0.00,,,0.00,Wunderground v.1.15,2013-02-20 15:40:00,
2013-02-20 10:45:00,48.7,25.4,30.12,North,356,6.0,13.0,40,0.00,,,0.00,Wunderground v.1.15,2013-02-20 15:45:00,
2013-02-20 10:50:00,49.0,25.1,30.12,North,359,6.0,6.0,39,0.00,,,0.00,Wunderground v.1.15,2013-02-20 15:50:00,
2013-02-20 10:55:00,49.3,24.7,30.12,NNE,18,5.0,13.0,38,0.00,,,0.00,Wunderground v.1.15,2013-02-20 15:55:00,
2013-02-20 11:00:00,49.9,24.6,30.12,NW,312,5.0,17.0,37,0.00,,,0.00,Wunderground v.1.15,2013-02-20 16:00:00,
2013-02-20 11:05:00,50.3,25.0,30.12,NW,315,5.0,17.0,37,0.00,,,0.00,Wunderground v.1.15,2013-02-20 16:05:00,
2013-02-20 11:10:00,50.3,23.0,30.12,NW,323,7.0,17.0,34,0.00,,,0.00,Wunderground v.1.15,2013-02-20 16:10:00,
2013-02-20 11:15:00,50.6,25.3,30.12,WNW,296,7.0,17.0,37,0.00,,,0.00,Wunderground v.1.15,2013-02-20 16:15:00,
2013-02-20 11:20:00,50.6,21.8,30.11,NNW,338,6.0,6.0,32,0.00,,,0.00,Wunderground v.1.15,2013-02-20 16:20:00,
2013-02-20 11:25:00,50.8,24.1,30.11,NE,46,6.0,17.0,35,0.00,,,0.00,Wunderground v.1.15,2013-02-20 16:25:00,
2013-02-20 11:30:00,51.3,23.1,30.11,NNE,32,6.0,6.0,33,0.00,,,0.00,Wunderground v.1.15,2013-02-20 16:30:00,
2013-02-20 11:35:00,51.4,22.5,30.11,NW,326,6.0,8.0,32,0.00,,,0.00,Wunderground v.1.15,2013-02-20 16:35:00,
2013-02-20 11:40:00,51.5,22.6,30.11,NNW,340,7.0,7.0,32,0.00,,,0.00,Wunderground v.1.15,2013-02-20 16:40:00,
2013-02-20 11:45:00,51.6,22.7,30.11,NW,315,6.0,17.0,32,0.00,,,0.00,Wunderground v.1.15,2013-02-20 16:45:00,
2013-02-20 11:50:00,51.9,22.2,30.11,NNW,348,6.0,6.0,31,0.00,,,0.00,Wunderground v.1.15,2013-02-20 16:50:00,
2013-02-20 11:55:00,51.9,22.2,30.10,NW,312,6.0,17.0,31,0.00,,,0.00,Wunderground v.1.15,2013-02-20 16:55:00,
2013-02-20 12:00:00,52.6,24.3,30.10,NW,309,6.0,13.0,33,0.00,,,0.00,Wunderground v.1.15,2013-02-20 17:00:00,
2013-02-20 12:05:00,52.8,23.7,30.10,NW,323,5.0,13.0,32,0.00,,,0.00,Wunderground v.1.15,2013-02-20 17:05:00,
2013-02-20 12:10:00,52.9,19.8,30.09,WNW,301,6.0,13.0,27,0.00,,,0.00,Wunderground v.1.15,2013-02-20 17:10:00,
2013-02-20 12:15:00,53.2,21.7,30.09,NW,309,7.0,13.0,29,0.00,,,0.00,Wunderground v.1.15,2013-02-20 17:15:00,
2013-02-20 12:20:00,53.2,22.5,30.09,WNW,287,6.0,13.0,30,0.00,,,0.00,Wunderground v.1.15,2013-02-20 17:20:00,
2013-02-20 12:25:00,53.2,20.9,30.08,WNW,297,5.0,13.0,28,0.00,,,0.00,Wunderground v.1.15,2013-02-20 17:25:00,
2013-02-20 12:30:00,53.2,20.9,30.08,North,351,5.0,5.0,28,0.00,,,0.00,Wunderground v.1.15,2013-02-20 17:30:00,
2013-02-20 12:35:00,53.2,21.7,30.08,NW,304,5.0,6.0,29,0.00,,,0.00,Wunderground v.1.15,2013-02-20 17:35:00,
2013-02-20 12:40:00,53.4,18.4,30.08,NW,320,6.0,6.0,25,0.00,,,0.00,Wunderground v.1.15,2013-02-20 17:40:00,
2013-02-20 12:45:00,53.6,21.2,30.08,NW,321,6.0,7.0,28,0.00,,,0.00,Wunderground v.1.15,2013-02-20 17:45:00,
2013-02-20 12:50:00,53.8,21.4,30.07,WNW,302,5.0,13.0,28,0.00,,,0.00,Wunderground v.1.15,2013-02-20 17:50:00,
2013-02-20 13:00:00,54.1,19.0,30.07,WNW,288,8.0,15.0,25,0.00,,,0.00,Wunderground v.1.15,2013-02-20 18:00:00,
2013-02-20 13:05:00,54.4,20.2,30.07,NNW,335,6.0,15.0,26,0.00,,,0.00,Wunderground v.1.15,2013-02-20 18:05:00,
2013-02-20 13:10:00,54.6,21.2,30.06,NNW,344,6.0,6.0,27,0.00,,,0.00,Wunderground v.1.15,2013-02-20 18:10:00,
2013-02-20 13:15:00,54.8,18.6,30.05,NNW,341,6.0,15.0,24,0.00,,,0.00,Wunderground v.1.15,2013-02-20 18:15:00,
2013-02-20 13:20:00,54.9,18.7,30.05,WNW,296,6.0,15.0,24,0.00,,,0.00,Wunderground v.1.15,2013-02-20 18:20:00,
2013-02-20 13:25:00,54.8,17.7,30.05,NW,325,6.0,15.0,23,0.00,,,0.00,Wunderground v.1.15,2013-02-20 18:25:00,
2013-02-20 13:30:00,55.1,20.8,30.05,NNW,337,5.0,15.0,26,0.00,,,0.00,Wunderground v.1.15,2013-02-20 18:30:00,
2013-02-20 13:35:00,54.9,19.7,30.04,NNW,330,5.0,15.0,25,0.00,,,0.00,Wunderground v.1.15,2013-02-20 18:35:00,
2013-02-20 13:40:00,54.9,21.5,30.04,West,267,4.0,15.0,27,0.00,,,0.00,Wunderground v.1.15,2013-02-20 18:40:00,
2013-02-20 13:45:00,55.2,20.9,30.04,WNW,300,5.0,15.0,26,0.00,,,0.00,Wunderground v.1.15,2013-02-20 18:45:00,
2013-02-20 13:50:00,54.9,21.5,30.05,West,276,6.0,15.0,27,0.00,,,0.00,Wunderground v.1.15,2013-02-20 18:50:00,
2013-02-20 13:55:00,54.7,22.2,30.04,NW,311,5.0,15.0,28,0.00,,,0.00,Wunderground v.1.15,2013-02-20 18:55:00,
2013-02-20 14:00:00,54.7,19.5,30.04,NW,310,5.0,5.0,25,0.00,,,0.00,Wunderground v.1.15,2013-02-20 19:00:00,
2013-02-20 14:05:00,54.9,20.6,30.04,North,8,5.0,11.0,26,0.00,,,0.00,Wunderground v.1.15,2013-02-20 19:05:00,
2013-02-20 14:10:00,55.6,22.1,30.04,NNW,335,5.0,5.0,27,0.00,,,0.00,Wunderground v.1.15,2013-02-20 19:10:00,
2013-02-20 14:15:00,55.5,17.2,30.03,NW,310,5.0,11.0,22,0.00,,,0.00,Wunderground v.1.15,2013-02-20 19:15:00,
2013-02-20 14:20:00,55.6,18.3,30.03,NW,308,4.0,4.0,23,0.00,,,0.00,Wunderground v.1.15,2013-02-20 19:20:00,
2013-02-20 14:25:00,55.8,20.5,30.03,WNW,298,3.0,7.0,25,0.00,,,0.00,Wunderground v.1.15,2013-02-20 19:25:00,
2013-02-20 14:30:00,56.1,18.8,30.03,SSE,163,5.0,5.0,23,0.00,,,0.00,Wunderground v.1.15,2013-02-20 19:30:00,
2013-02-20 14:35:00,55.4,36.5,30.03,East,99,4.0,11.0,49,0.00,,,0.00,Wunderground v.1.15,2013-02-20 19:35:00,
2013-02-20 14:40:00,54.5,37.2,30.03,South,176,3.0,11.0,52,0.00,,,0.00,Wunderground v.1.15,2013-02-20 19:40:00,
2013-02-20 14:45:00,54.1,34.3,30.03,ENE,65,3.0,11.0,47,0.00,,,0.00,Wunderground v.1.15,2013-02-20 19:45:00,
2013-02-20 14:50:00,53.8,35.6,30.03,SSW,193,4.0,11.0,50,0.00,,,0.00,Wunderground v.1.15,2013-02-20 19:50:00,
2013-02-20 14:55:00,53.4,35.7,30.02,North,358,5.0,11.0,51,0.00,,,0.00,Wunderground v.1.15,2013-02-20 19:55:00,
2013-02-20 15:00:00,52.9,35.2,30.03,NNE,20,4.0,4.0,51,0.00,,,0.00,Wunderground v.1.15,2013-02-20 20:00:00,
2013-02-20 15:05:00,52.6,35.5,30.03,WNW,289,4.0,13.0,52,0.00,,,0.00,Wunderground v.1.15,2013-02-20 20:05:00,
2013-02-20 15:10:00,52.7,35.6,30.03,ENE,58,4.0,4.0,52,0.00,,,0.00,Wunderground v.1.15,2013-02-20 20:10:00,
2013-02-20 15:15:00,53.0,38.2,30.03,WSW,240,4.0,5.0,57,0.00,,,0.00,Wunderground v.1.15,2013-02-20 20:15:00,
2013-02-20 15:20:00,53.0,37.3,30.04,WSW,246,4.0,13.0,55,0.00,,,0.00,Wunderground v.1.15,2013-02-20 20:20:00,
2013-02-20 15:25:00,52.7,37.4,30.04,SSE,162,5.0,13.0,56,0.00,,,0.00,Wunderground v.1.15,2013-02-20 20:25:00,
2013-02-20 15:30:00,52.4,38.5,30.04,SE,139,5.0,5.0,59,0.00,,,0.00,Wunderground v.1.15,2013-02-20 20:30:00,
2013-02-20 15:35:00,52.1,38.2,30.04,WSW,255,5.0,7.0,59,0.00,,,0.00,Wunderground v.1.15,2013-02-20 20:35:00,
2013-02-20 15:40:00,52.0,38.1,30.03,North,352,5.0,5.0,59,0.00,,,0.00,Wunderground v.1.15,2013-02-20 20:40:00,
2013-02-20 15:45:00,51.7,37.4,30.03,WSW,256,5.0,6.0,58,0.00,,,0.00,Wunderground v.1.15,2013-02-20 20:45:00,
2013-02-20 15:50:00,51.2,37.8,30.03,SSW,212,5.0,13.0,60,0.00,,,0.00,Wunderground v.1.15,2013-02-20 20:50:00,
2013-02-20 15:55:00,51.2,37.8,30.03,NE,44,4.0,13.0,60,0.00,,,0.00,Wunderground v.1.15,2013-02-20 20:55:00,
2013-02-20 16:00:00,51.5,38.5,30.04,ENE,71,4.0,14.0,61,0.00,,,0.00,Wunderground v.1.15,2013-02-20 21:00:00,
2013-02-20 16:10:00,51.7,39.1,30.03,WSW,250,4.0,14.0,62,0.00,,,0.00,Wunderground v.1.15,2013-02-20 21:10:00,
2013-02-20 16:15:00,51.8,37.9,30.03,NNE,13,4.0,14.0,59,0.00,,,0.00,Wunderground v.1.15,2013-02-20 21:15:00,
2013-02-20 16:20:00,51.8,39.2,30.04,North,356,4.0,4.0,62,0.00,,,0.00,Wunderground v.1.15,2013-02-20 21:20:00,
2013-02-20 16:25:00,51.8,38.8,30.04,ENE,66,4.0,14.0,61,0.00,,,0.00,Wunderground v.1.15,2013-02-20 21:25:00,
2013-02-20 16:30:00,51.8,38.8,30.03,WSW,240,4.0,14.0,61,0.00,,,0.00,Wunderground v.1.15,2013-02-20 21:30:00,
2013-02-20 16:35:00,51.9,38.9,30.03,SSE,165,4.0,14.0,61,0.00,,,0.00,Wunderground v.1.15,2013-02-20 21:35:00,
2013-02-20 16:45:00,51.9,38.9,30.03,SW,229,4.0,14.0,61,0.00,,,0.00,Wunderground v.1.15,2013-02-20 21:45:00,
2013-02-20 16:50:00,51.4,38.0,30.04,East,79,5.0,5.0,60,0.00,,,0.00,Wunderground v.1.15,2013-02-20 21:50:00,
2013-02-20 16:55:00,51.3,39.1,30.04,West,269,5.0,14.0,63,0.00,,,0.00,Wunderground v.1.15,2013-02-20 21:55:00,
2013-02-20 17:00:00,51.4,39.6,30.04,WSW,238,4.0,12.0,64,0.00,,,0.00,Wunderground v.1.15,2013-02-20 22:00:00,
2013-02-20 17:05:00,51.0,39.6,30.04,West,267,4.0,12.0,65,0.00,,,0.00,Wunderground v.1.15,2013-02-20 22:05:00,
2013-02-20 17:15:00,50.3,39.4,30.04,ENE,61,6.0,12.0,66,0.00,,,0.00,Wunderground v.1.15,2013-02-20 22:15:00,
2013-02-20 17:20:00,49.9,39.0,30.05,ENE,71,6.0,12.0,66,0.00,,,0.00,Wunderground v.1.15,2013-02-20 22:20:00,
2013-02-20 17:25:00,49.7,39.2,30.05,SSW,201,6.0,12.0,67,0.00,,,0.00,Wunderground v.1.15,2013-02-20 22:25:00,
2013-02-20 17:30:00,49.5,38.6,30.06,SW,221,6.0,6.0,66,0.00,,,0.00,Wunderground v.1.15,2013-02-20 22:30:00,
2013-02-20 17:35:00,49.5,39.0,30.05,West,266,5.0,7.0,67,0.00,,,0.00,Wunderground v.1.15,2013-02-20 22:35:00,
2013-02-20 17:40:00,49.5,39.0,30.06,WSW,238,6.0,12.0,67,0.00,,,0.00,Wunderground v.1.15,2013-02-20 22:40:00,
2013-02-20 17:50:00,49.6,39.8,30.06,ESE,109,6.0,6.0,69,0.00,,,0.00,Wunderground v.1.15,2013-02-20 22:50:00,
2013-02-20 17:55:00,49.7,39.9,30.06,NW,311,5.0,7.0,69,0.00,,,0.00,Wunderground v.1.15,2013-02-20 22:55:00,
2013-02-20 18:00:00,49.7,39.9,30.06,WSW,249,5.0,13.0,69,0.00,,,0.00,Wunderground v.1.15,2013-02-20 23:00:00,
2013-02-20 18:05:00,49.8,40.4,30.06,WSW,249,5.0,13.0,70,0.00,,,0.00,Wunderground v.1.15,2013-02-20 23:05:00,
2013-02-20 18:10:00,49.9,40.9,30.06,WNW,297,5.0,5.0,71,0.00,,,0.00,Wunderground v.1.15,2013-02-20 23:10:00,
2013-02-20 18:20:00,50.0,40.6,30.06,WNW,284,4.0,13.0,70,0.00,,,0.00,Wunderground v.1.15,2013-02-20 23:20:00,
2013-02-20 18:25:00,50.0,41.0,30.06,ENE,76,3.0,13.0,71,0.00,,,0.00,Wunderground v.1.15,2013-02-20 23:25:00,
2013-02-20 18:30:00,50.1,41.4,30.06,NNE,30,3.0,3.0,72,0.00,,,0.00,Wunderground v.1.15,2013-02-20 23:30:00,
2013-02-20 18:35:00,50.2,41.2,30.06,NW,305,3.0,13.0,71,0.00,,,0.00,Wunderground v.1.15,2013-02-20 23:35:00,
2013-02-20 18:40:00,50.2,40.8,30.07,NW,318,3.0,3.0,70,0.00,,,0.00,Wunderground v.1.15,2013-02-20 23:40:00,
2013-02-20 18:45:00,50.2,41.5,30.08,WNW,297,3.0,4.0,72,0.00,,,0.00,Wunderground v.1.15,2013-02-20 23:45:00,
2013-02-20 18:50:00,50.2,41.2,30.08,WNW,300,3.0,13.0,71,0.00,,,0.00,Wunderground v.1.15,2013-02-20 23:50:00,
2013-02-20 18:55:00,50.1,41.4,30.08,WNW,290,3.0,13.0,72,0.00,,,0.00,Wunderground v.1.15,2013-02-20 23:55:00,
2013-02-20 19:00:00,49.9,40.9,30.08,WNW,300,3.0,3.0,71,0.00,,,0.00,Wunderground v.1.15,2013-02-21 00:00:00,
2013-02-20 19:05:00,49.6,40.6,30.08,NW,323,3.0,13.0,71,0.00,,,0.00,Wunderground v.1.15,2013-02-21 00:05:00,
2013-02-20 19:10:00,49.3,40.7,30.08,NW,306,2.0,13.0,72,0.00,,,0.00,Wunderground v.1.15,2013-02-21 00:10:00,
2013-02-20 19:15:00,49.1,40.8,30.08,NW,307,1.0,13.0,73,0.00,,,0.00,Wunderground v.1.15,2013-02-21 00:15:00,
2013-02-20 19:20:00,48.8,40.9,30.08,NW,309,1.0,13.0,74,0.00,,,0.00,Wunderground v.1.15,2013-02-21 00:20:00,
2013-02-20 19:25:00,48.6,41.0,30.08,NW,309,1.0,13.0,75,0.00,,,0.00,Wunderground v.1.15,2013-02-21 00:25:00,
2013-02-20 19:30:00,48.4,40.1,30.09,NNW,329,1.0,13.0,73,0.00,,,0.00,Wunderground v.1.15,2013-02-21 00:30:00,
2013-02-20 19:35:00,48.5,40.9,30.09,NW,306,1.0,13.0,75,0.00,,,0.00,Wunderground v.1.15,2013-02-21 00:35:00,
2013-02-20 19:40:00,48.3,40.7,30.09,NW,315,1.0,1.0,75,0.00,,,0.00,Wunderground v.1.15,2013-02-21 00:40:00,
2013-02-20 19:45:00,48.1,40.5,30.09,NW,315,1.0,13.0,75,0.00,,,0.00,Wunderground v.1.15,2013-02-21 00:45:00,
2013-02-20 19:50:00,47.9,40.4,30.09,NW,315,1.0,1.0,75,0.00,,,0.00,Wunderground v.1.15,2013-02-21 00:50:00,
2013-02-20 19:55:00,47.7,40.5,30.09,NW,315,0.0,13.0,76,0.00,,,0.00,Wunderground v.1.15,2013-02-21 00:55:00,
2013-02-20 20:00:00,47.5,40.6,30.10,NW,315,1.0,3.0,77,0.00,,,0.00,Wunderground v.1.15,2013-02-21 01:00:00,
2013-02-20 20:05:00,47.5,40.0,30.10,WNW,301,1.0,3.0,75,0.00,,,0.00,Wunderground v.1.15,2013-02-21 01:05:00,
2013-02-20 20:10:00,47.3,39.4,30.11,West,281,1.0,3.0,74,0.00,,,0.00,Wunderground v.1.15,2013-02-21 01:10:00,
2013-02-20 20:15:00,47.1,37.8,30.11,NW,304,1.0,4.0,70,0.00,,,0.00,Wunderground v.1.15,2013-02-21 01:15:00,
2013-02-20 20:20:00,47.4,37.7,30.11,NNW,330,2.0,2.0,69,0.00,,,0.00,Wunderground v.1.15,2013-02-21 01:20:00,
2013-02-20 20:30:00,47.4,36.6,30.11,WNW,287,1.0,3.0,66,0.00,,,0.00,Wunderground v.1.15,2013-02-21 01:30:00,
2013-02-20 20:35:00,47.6,36.4,30.11,West,262,2.0,3.0,65,0.00,,,0.00,Wunderground v.1.15,2013-02-21 01:35:00,
2013-02-20 20:40:00,47.5,36.7,30.11,NW,309,2.0,2.0,66,0.00,,,0.00,Wunderground v.1.15,2013-02-21 01:40:00,
2013-02-20 20:45:00,47.2,36.4,30.11,WNW,291,1.0,3.0,66,0.00,,,0.00,Wunderground v.1.15,2013-02-21 01:45:00,
2013-02-20 20:50:00,47.1,36.3,30.11,West,281,2.0,3.0,66,0.00,,,0.00,Wunderground v.1.15,2013-02-21 01:50:00,
2013-02-20 21:00:00,46.7,36.3,30.11,WNW,290,2.0,5.0,67,0.00,,,0.00,Wunderground v.1.15,2013-02-21 02:00:00,
2013-02-20 21:05:00,46.7,36.7,30.11,WNW,302,3.0,5.0,68,0.00,,,0.00,Wunderground v.1.15,2013-02-21 02:05:00,
2013-02-20 21:10:00,46.4,36.4,30.11,WNW,293,3.0,3.0,68,0.00,,,0.00,Wunderground v.1.15,2013-02-21 02:10:00,
2013-02-20 21:15:00,46.2,36.6,30.11,WSW,240,2.0,4.0,69,0.00,,,0.00,Wunderground v.1.15,2013-02-21 02:15:00,
2013-02-20 21:20:00,46.0,36.8,30.12,NW,321,1.0,4.0,70,0.00,,,0.00,Wunderground v.1.15,2013-02-21 02:20:00,
2013-02-20 21:25:00,46.0,36.0,30.12,West,264,2.0,5.0,68,0.00,,,0.00,Wunderground v.1.15,2013-02-21 02:25:00,
2013-02-20 21:30:00,46.1,36.1,30.12,NW,314,2.0,4.0,68,0.00,,,0.00,Wunderground v.1.15,2013-02-21 02:30:00,
2013-02-20 21:35:00,46.1,36.1,30.12,NW,314,3.0,4.0,68,0.00,,,0.00,Wunderground v.1.15,2013-02-21 02:35:00,
2013-02-20 21:40:00,46.1,35.7,30.12,NNW,330,3.0,3.0,67,0.00,,,0.00,Wunderground v.1.15,2013-02-21 02:40:00,
2013-02-20 21:45:00,46.2,36.2,30.12,West,276,3.0,4.0,68,0.00,,,0.00,Wunderground v.1.15,2013-02-21 02:45:00,
2013-02-20 21:50:00,46.1,36.5,30.13,West,262,3.0,4.0,69,0.00,,,0.00,Wunderground v.1.15,2013-02-21 02:50:00,
2013-02-20 21:55:00,46.0,36.4,30.13,WNW,294,2.0,4.0,69,0.00,,,0.00,Wunderground v.1.15,2013-02-21 02:55:00,
2013-02-20 22:00:00,45.8,36.6,30.13,WNW,302,2.0,6.0,70,0.00,,,0.00,Wunderground v.1.15,2013-02-21 03:00:00,
2013-02-20 22:05:00,45.7,36.5,30.12,NW,326,2.0,6.0,70,0.00,,,0.00,Wunderground v.1.15,2013-02-21 03:05:00,
2013-02-20 22:10:00,45.6,36.7,30.13,NW,305,2.0,2.0,71,0.00,,,0.00,Wunderground v.1.15,2013-02-21 03:10:00,
2013-02-20 22:15:00,45.5,36.6,30.13,WNW,303,2.0,6.0,71,0.00,,,0.00,Wunderground v.1.15,2013-02-21 03:15:00,
2013-02-20 22:20:00,45.3,36.1,30.13,WNW,287,3.0,6.0,70,0.00,,,0.00,Wunderground v.1.15,2013-02-21 03:20:00,
2013-02-20 22:25:00,45.3,36.1,30.13,NW,309,3.0,6.0,70,0.00,,,0.00,Wunderground v.1.15,2013-02-21 03:25:00,
2013-02-20 22:30:00,45.2,36.0,30.12,WNW,294,3.0,3.0,70,0.00,,,0.00,Wunderground v.1.15,2013-02-21 03:30:00,
2013-02-20 22:35:00,45.1,35.9,30.12,WNW,293,2.0,6.0,70,0.00,,,0.00,Wunderground v.1.15,2013-02-21 03:35:00,
2013-02-20 22:40:00,45.1,35.9,30.12,WNW,298,3.0,6.0,70,0.00,,,0.00,Wunderground v.1.15,2013-02-21 03:40:00,
2013-02-20 22:45:00,45.1,36.3,30.12,WSW,256,3.0,6.0,71,0.00,,,0.00,Wunderground v.1.15,2013-02-21 03:45:00,
2013-02-20 22:50:00,44.7,35.9,30.12,West,260,1.0,1.0,71,0.00,,,0.00,Wunderground v.1.15,2013-02-21 03:50:00,
2013-02-20 22:55:00,44.1,36.0,30.12,WNW,299,0.0,2.0,73,0.00,,,0.00,Wunderground v.1.15,2013-02-21 03:55:00,
2013-02-20 23:00:00,44.2,36.4,30.11,WNW,298,1.0,5.0,74,0.00,,,0.00,Wunderground v.1.15,2013-02-21 04:00:00,
2013-02-20 23:05:00,44.3,36.5,30.11,WNW,291,2.0,5.0,74,0.00,,,0.00,Wunderground v.1.15,2013-02-21 04:05:00,
2013-02-20 23:10:00,44.1,36.7,30.11,WNW,291,1.0,5.0,75,0.00,,,0.00,Wunderground v.1.15,2013-02-21 04:10:00,
2013-02-20 23:15:00,43.7,36.6,30.11,WNW,291,1.0,5.0,76,0.00,,,0.00,Wunderground v.1.15,2013-02-21 04:15:00,
2013-02-20 23:20:00,43.3,37.2,30.11,NW,307,1.0,5.0,79,0.00,,,0.00,Wunderground v.1.15,2013-02-21 04:20:00,
2013-02-20 23:25:00,43.1,37.0,30.10,NW,312,1.0,5.0,79,0.00,,,0.00,Wunderground v.1.15,2013-02-21 04:25:00,
2013-02-20 23:30:00,42.6,36.9,30.10,NW,313,1.0,1.0,80,0.00,,,0.00,Wunderground v.1.15,2013-02-21 04:30:00,
2013-02-20 23:35:00,42.0,36.6,30.10,NW,323,1.0,5.0,81,0.00,,,0.00,Wunderground v.1.15,2013-02-21 04:35:00,
2013-02-20 23:40:00,41.6,36.5,30.11,NNW,337,1.0,5.0,82,0.00,,,0.00,Wunderground v.1.15,2013-02-21 04:40:00,
2013-02-20 23:45:00,41.5,36.1,30.11,NNW,330,1.0,5.0,81,0.00,,,0.00,Wunderground v.1.15,2013-02-21 04:45:00,
2013-02-20 23:50:00,41.5,36.4,30.10,NW,325,2.0,5.0,82,0.00,,,0.00,Wunderground v.1.15,2013-02-21 04:50:00,
2013-02-20 23:55:00,41.8,36.1,30.10,NW,325,2.0,5.0,80,0.00,,,0.00,Wunderground v.1.15,2013-02-21 04:55:00,